sensor_id;sensor_type;location;lat;lon;timestamp;temperature;humidity
49731;DHT22;35622;52.008;5.426;2022-11-20T00:00:25;-0.50;69.90
49731;DHT22;35622;52.008;5.426;2022-11-20T00:02:50;-0.50;70.20
49731;DHT22;35622;52.008;5.426;2022-11-20T00:05:16;-0.40;70.30
49731;DHT22;35622;52.008;5.426;2022-11-20T00:07:42;-0.30;70.10
49731;DHT22;35622;52.008;5.426;2022-11-20T00:10:08;-0.20;69.90
49731;DHT22;35622;52.008;5.426;2022-11-20T00:12:33;-0.10;69.30
49731;DHT22;35622;52.008;5.426;2022-11-20T00:14:59;0.00;68.80
49731;DHT22;35622;52.008;5.426;2022-11-20T00:17:24;-0.10;68.60
49731;DHT22;35622;52.008;5.426;2022-11-20T00:19:50;0.00;68.20
49731;DHT22;35622;52.008;5.426;2022-11-20T00:22:15;-0.10;67.80
49731;DHT22;35622;52.008;5.426;2022-11-20T00:24:41;-0.10;67.70
49731;DHT22;35622;52.008;5.426;2022-11-20T00:27:06;-0.20;68.10
49731;DHT22;35622;52.008;5.426;2022-11-20T00:29:32;-0.20;68.20
49731;DHT22;35622;52.008;5.426;2022-11-20T00:31:57;-0.10;68.10
49731;DHT22;35622;52.008;5.426;2022-11-20T00:34:23;-0.20;67.90
49731;DHT22;35622;52.008;5.426;2022-11-20T00:36:48;-0.20;68.20
49731;DHT22;35622;52.008;5.426;2022-11-20T00:39:14;-0.20;68.30
49731;DHT22;35622;52.008;5.426;2022-11-20T00:41:39;-0.20;68.30
49731;DHT22;35622;52.008;5.426;2022-11-20T00:44:05;-0.20;68.20
49731;DHT22;35622;52.008;5.426;2022-11-20T00:46:30;-0.10;68.20
49731;DHT22;35622;52.008;5.426;2022-11-20T00:48:56;-0.10;67.80
49731;DHT22;35622;52.008;5.426;2022-11-20T00:51:23;-0.10;67.40
49731;DHT22;35622;52.008;5.426;2022-11-20T00:53:49;0.00;67.40
49731;DHT22;35622;52.008;5.426;2022-11-20T00:56:17;0.00;66.80
49731;DHT22;35622;52.008;5.426;2022-11-20T00:58:45;0.00;66.30
49731;DHT22;35622;52.008;5.426;2022-11-20T01:01:17;-0.20;65.90
49731;DHT22;35622;52.008;5.426;2022-11-20T01:03:44;-0.20;66.10
49731;DHT22;35622;52.008;5.426;2022-11-20T01:06:18;-0.30;66.20
49731;DHT22;35622;52.008;5.426;2022-11-20T01:08:44;-0.30;66.60
49731;DHT22;35622;52.008;5.426;2022-11-20T01:11:15;-0.30;67.00
49731;DHT22;35622;52.008;5.426;2022-11-20T01:13:42;-0.30;66.40
49731;DHT22;35622;52.008;5.426;2022-11-20T01:16:14;-0.40;66.70
49731;DHT22;35622;52.008;5.426;2022-11-20T01:18:42;-0.40;66.60
49731;DHT22;35622;52.008;5.426;2022-11-20T01:21:20;-0.40;66.50
49731;DHT22;35622;52.008;5.426;2022-11-20T01:23:46;-0.40;66.50
49731;DHT22;35622;52.008;5.426;2022-11-20T01:26:17;-0.50;66.90
49731;DHT22;35622;52.008;5.426;2022-11-20T01:28:43;-0.50;66.80
49731;DHT22;35622;52.008;5.426;2022-11-20T01:31:14;-0.50;66.80
49731;DHT22;35622;52.008;5.426;2022-11-20T01:33:40;-0.60;66.80
49731;DHT22;35622;52.008;5.426;2022-11-20T01:36:07;-0.70;67.30
49731;DHT22;35622;52.008;5.426;2022-11-20T01:38:33;-0.70;67.70
49731;DHT22;35622;52.008;5.426;2022-11-20T01:40:58;-0.80;68.10
49731;DHT22;35622;52.008;5.426;2022-11-20T01:43:24;-0.60;68.30
49731;DHT22;35622;52.008;5.426;2022-11-20T01:46:12;-0.40;67.40
49731;DHT22;35622;52.008;5.426;2022-11-20T01:48:59;-0.40;66.90
49731;DHT22;35622;52.008;5.426;2022-11-20T01:51:35;-0.50;66.60
49731;DHT22;35622;52.008;5.426;2022-11-20T01:54:09;-0.50;66.90
49731;DHT22;35622;52.008;5.426;2022-11-20T01:56:39;-0.50;67.40
49731;DHT22;35622;52.008;5.426;2022-11-20T01:59:08;-0.40;67.00
49731;DHT22;35622;52.008;5.426;2022-11-20T02:01:35;-0.40;66.70
49731;DHT22;35622;52.008;5.426;2022-11-20T02:04:01;-0.30;66.10
49731;DHT22;35622;52.008;5.426;2022-11-20T02:06:44;-0.40;65.80
49731;DHT22;35622;52.008;5.426;2022-11-20T02:09:11;-0.50;65.80
49731;DHT22;35622;52.008;5.426;2022-11-20T02:11:37;-0.60;65.80
49731;DHT22;35622;52.008;5.426;2022-11-20T02:14:03;-0.60;66.20
49731;DHT22;35622;52.008;5.426;2022-11-20T02:16:31;-0.60;67.30
49731;DHT22;35622;52.008;5.426;2022-11-20T02:19:00;-0.60;66.50
49731;DHT22;35622;52.008;5.426;2022-11-20T02:24:24;-0.60;66.50
49731;DHT22;35622;52.008;5.426;2022-11-20T02:27:05;-0.70;66.60
49731;DHT22;35622;52.008;5.426;2022-11-20T02:32:06;-0.50;65.70
49731;DHT22;35622;52.008;5.426;2022-11-20T02:34:32;-0.60;65.20
49731;DHT22;35622;52.008;5.426;2022-11-20T02:36:59;-0.60;65.20
49731;DHT22;35622;52.008;5.426;2022-11-20T02:39:26;-0.80;65.40
49731;DHT22;35622;52.008;5.426;2022-11-20T02:41:56;-0.70;66.10
49731;DHT22;35622;52.008;5.426;2022-11-20T02:44:22;-0.60;65.50
49731;DHT22;35622;52.008;5.426;2022-11-20T02:46:47;-0.70;65.10
49731;DHT22;35622;52.008;5.426;2022-11-20T02:49:13;-0.70;65.30
49731;DHT22;35622;52.008;5.426;2022-11-20T02:51:38;-0.80;65.10
49731;DHT22;35622;52.008;5.426;2022-11-20T02:54:04;-0.80;65.30
49731;DHT22;35622;52.008;5.426;2022-11-20T02:56:30;-0.90;65.10
49731;DHT22;35622;52.008;5.426;2022-11-20T02:58:56;-0.80;65.10
49731;DHT22;35622;52.008;5.426;2022-11-20T03:01:21;-0.80;65.00
49731;DHT22;35622;52.008;5.426;2022-11-20T03:03:47;-0.90;65.00
49731;DHT22;35622;52.008;5.426;2022-11-20T03:06:15;-1.00;65.10
49731;DHT22;35622;52.008;5.426;2022-11-20T03:08:41;-0.90;65.20
49731;DHT22;35622;52.008;5.426;2022-11-20T03:11:08;-0.90;65.10
49731;DHT22;35622;52.008;5.426;2022-11-20T03:13:34;-0.90;65.00
49731;DHT22;35622;52.008;5.426;2022-11-20T03:16:14;-0.90;64.70
49731;DHT22;35622;52.008;5.426;2022-11-20T03:18:41;-1.00;64.70
49731;DHT22;35622;52.008;5.426;2022-11-20T03:21:08;-0.90;64.80
49731;DHT22;35622;52.008;5.426;2022-11-20T03:23:34;-1.00;64.80
49731;DHT22;35622;52.008;5.426;2022-11-20T03:28:33;-0.90;65.30
49731;DHT22;35622;52.008;5.426;2022-11-20T03:31:08;-1.00;64.70
49731;DHT22;35622;52.008;5.426;2022-11-20T03:33:34;-1.20;65.20
49731;DHT22;35622;52.008;5.426;2022-11-20T03:36:04;-1.10;66.10
49731;DHT22;35622;52.008;5.426;2022-11-20T03:38:30;-1.00;65.80
49731;DHT22;35622;52.008;5.426;2022-11-20T03:41:05;-1.10;65.80
49731;DHT22;35622;52.008;5.426;2022-11-20T03:43:31;-0.90;65.60
49731;DHT22;35622;52.008;5.426;2022-11-20T03:45:57;-0.80;64.50
49731;DHT22;35622;52.008;5.426;2022-11-20T03:48:23;-1.00;64.60
49731;DHT22;35622;52.008;5.426;2022-11-20T03:50:49;-1.10;65.10
49731;DHT22;35622;52.008;5.426;2022-11-20T03:53:15;-1.20;65.90
49731;DHT22;35622;52.008;5.426;2022-11-20T03:55:41;-1.20;66.70
49731;DHT22;35622;52.008;5.426;2022-11-20T03:58:06;-1.00;67.00
49731;DHT22;35622;52.008;5.426;2022-11-20T04:00:32;-1.00;66.20
49731;DHT22;35622;52.008;5.426;2022-11-20T04:02:58;-1.00;65.90
49731;DHT22;35622;52.008;5.426;2022-11-20T04:05:25;-1.10;65.80
49731;DHT22;35622;52.008;5.426;2022-11-20T04:07:50;-1.10;66.30
49731;DHT22;35622;52.008;5.426;2022-11-20T04:10:16;-1.10;66.20
49731;DHT22;35622;52.008;5.426;2022-11-20T04:12:41;-1.00;66.30
49731;DHT22;35622;52.008;5.426;2022-11-20T04:15:07;-0.80;65.70
49731;DHT22;35622;52.008;5.426;2022-11-20T04:17:33;-0.90;65.20
49731;DHT22;35622;52.008;5.426;2022-11-20T04:19:58;-0.90;65.20
49731;DHT22;35622;52.008;5.426;2022-11-20T04:22:24;-1.00;65.50
49731;DHT22;35622;52.008;5.426;2022-11-20T04:24:49;-1.00;65.70
49731;DHT22;35622;52.008;5.426;2022-11-20T04:27:15;-1.10;65.80
49731;DHT22;35622;52.008;5.426;2022-11-20T04:29:40;-0.90;66.00
49731;DHT22;35622;52.008;5.426;2022-11-20T04:32:06;-0.90;65.50
49731;DHT22;35622;52.008;5.426;2022-11-20T04:34:31;-1.00;66.60
49731;DHT22;35622;52.008;5.426;2022-11-20T04:36:57;-1.10;66.40
49731;DHT22;35622;52.008;5.426;2022-11-20T04:39:22;-1.10;66.60
49731;DHT22;35622;52.008;5.426;2022-11-20T04:41:48;-1.10;66.60
49731;DHT22;35622;52.008;5.426;2022-11-20T04:44:33;-1.10;66.30
49731;DHT22;35622;52.008;5.426;2022-11-20T04:46:59;-1.10;66.30
49731;DHT22;35622;52.008;5.426;2022-11-20T04:49:24;-1.10;66.30
49731;DHT22;35622;52.008;5.426;2022-11-20T04:51:53;-1.10;66.50
49731;DHT22;35622;52.008;5.426;2022-11-20T04:54:18;-1.10;66.20
49731;DHT22;35622;52.008;5.426;2022-11-20T04:56:47;-1.00;65.80
49731;DHT22;35622;52.008;5.426;2022-11-20T04:59:13;-0.90;64.50
49731;DHT22;35622;52.008;5.426;2022-11-20T05:01:39;-1.10;64.10
49731;DHT22;35622;52.008;5.426;2022-11-20T05:04:05;-1.20;64.70
49731;DHT22;35622;52.008;5.426;2022-11-20T05:06:31;-1.30;65.10
49731;DHT22;35622;52.008;5.426;2022-11-20T05:08:57;-1.30;65.60
49731;DHT22;35622;52.008;5.426;2022-11-20T05:11:23;-1.30;66.00
49731;DHT22;35622;52.008;5.426;2022-11-20T05:13:50;-1.40;65.90
49731;DHT22;35622;52.008;5.426;2022-11-20T05:16:22;-1.20;66.00
49731;DHT22;35622;52.008;5.426;2022-11-20T05:18:48;-1.20;65.50
49731;DHT22;35622;52.008;5.426;2022-11-20T05:21:14;-1.30;65.10
49731;DHT22;35622;52.008;5.426;2022-11-20T05:23:40;-1.40;65.20
49731;DHT22;35622;52.008;5.426;2022-11-20T05:26:08;-1.40;65.50
49731;DHT22;35622;52.008;5.426;2022-11-20T05:28:37;-1.50;65.70
49731;DHT22;35622;52.008;5.426;2022-11-20T05:31:07;-1.40;65.50
49731;DHT22;35622;52.008;5.426;2022-11-20T05:33:34;-1.40;65.10
49731;DHT22;35622;52.008;5.426;2022-11-20T05:36:00;-1.40;64.90
49731;DHT22;35622;52.008;5.426;2022-11-20T05:38:25;-1.40;64.50
49731;DHT22;35622;52.008;5.426;2022-11-20T05:40:51;-1.60;64.60
49731;DHT22;35622;52.008;5.426;2022-11-20T05:43:16;-1.50;65.00
49731;DHT22;35622;52.008;5.426;2022-11-20T05:45:42;-1.50;64.60
49731;DHT22;35622;52.008;5.426;2022-11-20T05:48:07;-1.50;64.60
49731;DHT22;35622;52.008;5.426;2022-11-20T05:50:33;-1.70;64.50
49731;DHT22;35622;52.008;5.426;2022-11-20T05:52:59;-1.70;65.00
49731;DHT22;35622;52.008;5.426;2022-11-20T05:55:26;-1.60;65.00
49731;DHT22;35622;52.008;5.426;2022-11-20T05:57:55;-1.70;64.90
49731;DHT22;35622;52.008;5.426;2022-11-20T06:00:20;-1.70;65.10
49731;DHT22;35622;52.008;5.426;2022-11-20T06:02:46;-1.60;64.90
49731;DHT22;35622;52.008;5.426;2022-11-20T06:05:12;-1.60;64.90
49731;DHT22;35622;52.008;5.426;2022-11-20T06:07:37;-1.60;64.40
49731;DHT22;35622;52.008;5.426;2022-11-20T06:10:03;-1.70;64.50
49731;DHT22;35622;52.008;5.426;2022-11-20T06:12:30;-1.50;64.70
49731;DHT22;35622;52.008;5.426;2022-11-20T06:14:56;-1.50;64.00
49731;DHT22;35622;52.008;5.426;2022-11-20T06:17:21;-1.50;63.70
49731;DHT22;35622;52.008;5.426;2022-11-20T06:19:47;-1.70;63.70
49731;DHT22;35622;52.008;5.426;2022-11-20T06:22:12;-1.80;64.40
49731;DHT22;35622;52.008;5.426;2022-11-20T06:24:38;-1.80;65.10
49731;DHT22;35622;52.008;5.426;2022-11-20T06:27:03;-1.70;65.20
49731;DHT22;35622;52.008;5.426;2022-11-20T06:29:29;-1.60;64.60
49731;DHT22;35622;52.008;5.426;2022-11-20T06:31:54;-1.70;64.10
49731;DHT22;35622;52.008;5.426;2022-11-20T06:34:20;-1.70;64.20
49731;DHT22;35622;52.008;5.426;2022-11-20T06:36:45;-1.70;64.50
49731;DHT22;35622;52.008;5.426;2022-11-20T06:39:11;-1.80;64.40
49731;DHT22;35622;52.008;5.426;2022-11-20T06:41:37;-1.60;64.60
49731;DHT22;35622;52.008;5.426;2022-11-20T06:44:04;-1.60;64.10
49731;DHT22;35622;52.008;5.426;2022-11-20T06:46:30;-1.50;63.90
49731;DHT22;35622;52.008;5.426;2022-11-20T06:48:55;-1.60;63.90
49731;DHT22;35622;52.008;5.426;2022-11-20T06:51:21;-1.50;64.20
49731;DHT22;35622;52.008;5.426;2022-11-20T06:53:47;-1.60;63.80
49731;DHT22;35622;52.008;5.426;2022-11-20T06:56:12;-1.70;64.40
49731;DHT22;35622;52.008;5.426;2022-11-20T06:58:38;-1.70;64.70
49731;DHT22;35622;52.008;5.426;2022-11-20T07:01:14;-1.50;65.00
49731;DHT22;35622;52.008;5.426;2022-11-20T07:03:40;-1.50;65.50
49731;DHT22;35622;52.008;5.426;2022-11-20T07:06:06;-1.50;64.90
49731;DHT22;35622;52.008;5.426;2022-11-20T07:08:33;-1.30;64.60
49731;DHT22;35622;52.008;5.426;2022-11-20T07:11:00;-1.30;64.50
49731;DHT22;35622;52.008;5.426;2022-11-20T07:13:26;-1.40;64.40
49731;DHT22;35622;52.008;5.426;2022-11-20T07:15:52;-1.40;64.70
49731;DHT22;35622;52.008;5.426;2022-11-20T07:18:18;-1.40;64.70
49731;DHT22;35622;52.008;5.426;2022-11-20T07:20:43;-1.40;64.80
49731;DHT22;35622;52.008;5.426;2022-11-20T07:23:09;-1.40;64.70
49731;DHT22;35622;52.008;5.426;2022-11-20T07:25:34;-1.30;64.80
49731;DHT22;35622;52.008;5.426;2022-11-20T07:28:00;-1.40;64.50
49731;DHT22;35622;52.008;5.426;2022-11-20T07:30:27;-1.30;65.60
49731;DHT22;35622;52.008;5.426;2022-11-20T07:32:53;-1.20;64.90
49731;DHT22;35622;52.008;5.426;2022-11-20T07:35:19;-1.20;64.50
49731;DHT22;35622;52.008;5.426;2022-11-20T07:37:45;-1.00;64.70
49731;DHT22;35622;52.008;5.426;2022-11-20T07:40:12;-1.00;64.80
49731;DHT22;35622;52.008;5.426;2022-11-20T07:42:38;-0.80;64.70
49731;DHT22;35622;52.008;5.426;2022-11-20T07:45:03;-0.80;64.40
49731;DHT22;35622;52.008;5.426;2022-11-20T07:47:35;-0.70;64.60
49731;DHT22;35622;52.008;5.426;2022-11-20T07:50:00;-0.50;64.90
49731;DHT22;35622;52.008;5.426;2022-11-20T07:52:26;-0.30;65.00
49731;DHT22;35622;52.008;5.426;2022-11-20T07:54:51;-0.20;64.80
49731;DHT22;35622;52.008;5.426;2022-11-20T07:57:17;0.00;64.70
49731;DHT22;35622;52.008;5.426;2022-11-20T07:59:42;0.10;64.50
49731;DHT22;35622;52.008;5.426;2022-11-20T08:02:10;0.10;64.10
49731;DHT22;35622;52.008;5.426;2022-11-20T08:04:36;0.20;64.10
49731;DHT22;35622;52.008;5.426;2022-11-20T08:07:01;0.30;64.10
49731;DHT22;35622;52.008;5.426;2022-11-20T08:09:27;0.40;63.90
49731;DHT22;35622;52.008;5.426;2022-11-20T08:11:54;0.60;64.30
49731;DHT22;35622;52.008;5.426;2022-11-20T08:14:38;0.90;64.80
49731;DHT22;35622;52.008;5.426;2022-11-20T08:17:04;1.30;65.30
49731;DHT22;35622;52.008;5.426;2022-11-20T08:19:29;1.40;65.40
49731;DHT22;35622;52.008;5.426;2022-11-20T08:21:55;1.70;65.60
49731;DHT22;35622;52.008;5.426;2022-11-20T08:24:20;1.90;65.60
49731;DHT22;35622;52.008;5.426;2022-11-20T08:26:46;2.10;65.70
49731;DHT22;35622;52.008;5.426;2022-11-20T08:29:12;2.30;65.50
49731;DHT22;35622;52.008;5.426;2022-11-20T08:31:37;2.40;65.30
49731;DHT22;35622;52.008;5.426;2022-11-20T08:34:03;2.50;65.50
49731;DHT22;35622;52.008;5.426;2022-11-20T08:36:28;2.50;65.00
49731;DHT22;35622;52.008;5.426;2022-11-20T08:38:57;2.80;65.70
49731;DHT22;35622;52.008;5.426;2022-11-20T08:41:23;2.80;65.40
49731;DHT22;35622;52.008;5.426;2022-11-20T08:43:56;3.10;65.60
49731;DHT22;35622;52.008;5.426;2022-11-20T08:46:23;3.30;65.40
49731;DHT22;35622;52.008;5.426;2022-11-20T08:48:49;3.30;65.50
49731;DHT22;35622;52.008;5.426;2022-11-20T08:51:14;3.50;66.00
49731;DHT22;35622;52.008;5.426;2022-11-20T08:53:40;3.70;66.10
49731;DHT22;35622;52.008;5.426;2022-11-20T08:56:06;3.70;66.20
49731;DHT22;35622;52.008;5.426;2022-11-20T08:58:32;3.90;66.70
49731;DHT22;35622;52.008;5.426;2022-11-20T09:00:58;3.90;66.50
49731;DHT22;35622;52.008;5.426;2022-11-20T09:03:23;4.00;66.60
49731;DHT22;35622;52.008;5.426;2022-11-20T09:06:00;4.10;67.00
49731;DHT22;35622;52.008;5.426;2022-11-20T09:08:26;4.20;67.20
49731;DHT22;35622;52.008;5.426;2022-11-20T09:10:52;4.30;67.50
49731;DHT22;35622;52.008;5.426;2022-11-20T09:13:19;4.40;67.30
49731;DHT22;35622;52.008;5.426;2022-11-20T09:15:45;4.50;68.00
49731;DHT22;35622;52.008;5.426;2022-11-20T09:18:10;4.70;68.70
49731;DHT22;35622;52.008;5.426;2022-11-20T09:20:36;4.90;68.70
49731;DHT22;35622;52.008;5.426;2022-11-20T09:23:02;4.80;67.50
49731;DHT22;35622;52.008;5.426;2022-11-20T09:25:28;4.60;67.30
49731;DHT22;35622;52.008;5.426;2022-11-20T09:27:58;5.00;68.90
49731;DHT22;35622;52.008;5.426;2022-11-20T09:30:24;5.40;69.10
49731;DHT22;35622;52.008;5.426;2022-11-20T09:32:50;5.70;68.60
49731;DHT22;35622;52.008;5.426;2022-11-20T09:35:15;6.00;68.40
49731;DHT22;35622;52.008;5.426;2022-11-20T09:37:41;6.30;68.80
49731;DHT22;35622;52.008;5.426;2022-11-20T09:40:21;6.60;68.60
49731;DHT22;35622;52.008;5.426;2022-11-20T09:48:20;7.30;68.30
49731;DHT22;35622;52.008;5.426;2022-11-20T09:57:03;7.60;66.20
49731;DHT22;35622;52.008;5.426;2022-11-20T09:59:46;7.90;64.60
49731;DHT22;35622;52.008;5.426;2022-11-20T10:05:21;8.00;63.90
49731;DHT22;35622;52.008;5.426;2022-11-20T10:16:22;8.20;62.20
49731;DHT22;35622;52.008;5.426;2022-11-20T10:24:36;8.50;61.40
49731;DHT22;35622;52.008;5.426;2022-11-20T10:29:45;8.50;58.50
49731;DHT22;35622;52.008;5.426;2022-11-20T10:32:20;8.60;59.10
49731;DHT22;35622;52.008;5.426;2022-11-20T10:37:42;8.40;58.10
49731;DHT22;35622;52.008;5.426;2022-11-20T10:42:55;7.90;59.00
49731;DHT22;35622;52.008;5.426;2022-11-20T10:47:54;8.10;59.70
49731;DHT22;35622;52.008;5.426;2022-11-20T10:50:21;8.20;59.10
49731;DHT22;35622;52.008;5.426;2022-11-20T10:53:14;8.40;58.70
49731;DHT22;35622;52.008;5.426;2022-11-20T10:55:50;8.20;58.00
49731;DHT22;35622;52.008;5.426;2022-11-20T10:58:41;8.00;59.40
49731;DHT22;35622;52.008;5.426;2022-11-20T11:01:18;8.10;59.00
49731;DHT22;35622;52.008;5.426;2022-11-20T11:03:44;8.10;59.10
49731;DHT22;35622;52.008;5.426;2022-11-20T11:06:34;8.30;59.40
49731;DHT22;35622;52.008;5.426;2022-11-20T11:09:08;8.60;59.20
49731;DHT22;35622;52.008;5.426;2022-11-20T11:11:38;8.80;58.60
49731;DHT22;35622;52.008;5.426;2022-11-20T11:14:08;9.00;58.40
49731;DHT22;35622;52.008;5.426;2022-11-20T11:16:34;9.10;57.60
49731;DHT22;35622;52.008;5.426;2022-11-20T11:21:30;8.50;59.30
49731;DHT22;35622;52.008;5.426;2022-11-20T11:24:01;8.60;59.50
49731;DHT22;35622;52.008;5.426;2022-11-20T11:26:28;8.10;59.80
49731;DHT22;35622;52.008;5.426;2022-11-20T11:31:30;8.00;62.20
49731;DHT22;35622;52.008;5.426;2022-11-20T11:34:14;7.60;62.50
49731;DHT22;35622;52.008;5.426;2022-11-20T11:36:40;7.30;64.20
49731;DHT22;35622;52.008;5.426;2022-11-20T11:39:11;7.70;64.60
49731;DHT22;35622;52.008;5.426;2022-11-20T11:41:40;7.90;63.20
49731;DHT22;35622;52.008;5.426;2022-11-20T11:47:03;6.90;66.40
49731;DHT22;35622;52.008;5.426;2022-11-20T11:49:29;7.20;67.00
49731;DHT22;35622;52.008;5.426;2022-11-20T11:52:12;7.10;68.00
49731;DHT22;35622;52.008;5.426;2022-11-20T12:05:06;7.40;68.00
49731;DHT22;35622;52.008;5.426;2022-11-20T12:08:12;7.70;68.00
49731;DHT22;35622;52.008;5.426;2022-11-20T12:10:57;7.90;67.30
49731;DHT22;35622;52.008;5.426;2022-11-20T12:16:04;8.20;65.90
49731;DHT22;35622;52.008;5.426;2022-11-20T12:18:30;7.70;67.10
49731;DHT22;35622;52.008;5.426;2022-11-20T12:24:20;7.80;68.30
49731;DHT22;35622;52.008;5.426;2022-11-20T12:30:02;7.80;67.90
49731;DHT22;35622;52.008;5.426;2022-11-20T12:38:45;7.00;70.60
49731;DHT22;35622;52.008;5.426;2022-11-20T12:41:25;6.90;70.70
49731;DHT22;35622;52.008;5.426;2022-11-20T12:52:52;6.80;71.70
49731;DHT22;35622;52.008;5.426;2022-11-20T12:58:13;7.40;71.80
49731;DHT22;35622;52.008;5.426;2022-11-20T13:00:51;7.00;71.50
49731;DHT22;35622;52.008;5.426;2022-11-20T13:03:40;6.50;72.20
49731;DHT22;35622;52.008;5.426;2022-11-20T13:06:12;6.60;73.90
49731;DHT22;35622;52.008;5.426;2022-11-20T13:08:40;6.30;74.80
49731;DHT22;35622;52.008;5.426;2022-11-20T13:14:03;7.00;73.00
49731;DHT22;35622;52.008;5.426;2022-11-20T13:18:55;5.80;77.50
49731;DHT22;35622;52.008;5.426;2022-11-20T13:21:35;6.10;77.80
49731;DHT22;35622;52.008;5.426;2022-11-20T13:24:26;6.20;76.40
49731;DHT22;35622;52.008;5.426;2022-11-20T13:29:42;6.40;76.70
49731;DHT22;35622;52.008;5.426;2022-11-20T13:32:17;6.60;76.10
49731;DHT22;35622;52.008;5.426;2022-11-20T13:34:57;7.00;74.80
49731;DHT22;35622;52.008;5.426;2022-11-20T13:37:35;7.20;74.10
49731;DHT22;35622;52.008;5.426;2022-11-20T13:40:22;7.20;73.30
49731;DHT22;35622;52.008;5.426;2022-11-20T13:45:30;7.50;72.30
49731;DHT22;35622;52.008;5.426;2022-11-20T13:47:58;7.60;70.70
49731;DHT22;35622;52.008;5.426;2022-11-20T13:50:44;7.10;72.80
49731;DHT22;35622;52.008;5.426;2022-11-20T14:01:23;7.50;73.00
49731;DHT22;35622;52.008;5.426;2022-11-20T14:03:50;7.40;72.70
49731;DHT22;35622;52.008;5.426;2022-11-20T14:06:31;7.50;72.70
49731;DHT22;35622;52.008;5.426;2022-11-20T14:08:58;7.80;72.00
49731;DHT22;35622;52.008;5.426;2022-11-20T14:11:29;7.90;71.50
49731;DHT22;35622;52.008;5.426;2022-11-20T14:16:27;7.70;72.00
49731;DHT22;35622;52.008;5.426;2022-11-20T14:18:54;7.20;72.80
49731;DHT22;35622;52.008;5.426;2022-11-20T14:21:29;7.00;74.70
49731;DHT22;35622;52.008;5.426;2022-11-20T14:24:04;7.00;75.90
49731;DHT22;35622;52.008;5.426;2022-11-20T14:26:31;7.40;75.20
49731;DHT22;35622;52.008;5.426;2022-11-20T14:28:57;7.60;73.00
49731;DHT22;35622;52.008;5.426;2022-11-20T14:31:27;7.10;74.00
49731;DHT22;35622;52.008;5.426;2022-11-20T14:33:54;7.20;74.70
49731;DHT22;35622;52.008;5.426;2022-11-20T14:36:23;7.40;74.40
49731;DHT22;35622;52.008;5.426;2022-11-20T14:38:50;7.00;75.40
49731;DHT22;35622;52.008;5.426;2022-11-20T14:41:19;7.00;75.40
49731;DHT22;35622;52.008;5.426;2022-11-20T14:43:58;7.10;75.60
49731;DHT22;35622;52.008;5.426;2022-11-20T14:46:24;7.00;76.50
49731;DHT22;35622;52.008;5.426;2022-11-20T14:48:53;7.10;75.70
49731;DHT22;35622;52.008;5.426;2022-11-20T14:51:46;7.40;74.60
49731;DHT22;35622;52.008;5.426;2022-11-20T14:54:15;7.50;74.40
49731;DHT22;35622;52.008;5.426;2022-11-20T14:56:41;7.70;73.50
49731;DHT22;35622;52.008;5.426;2022-11-20T14:59:08;7.20;74.10
49731;DHT22;35622;52.008;5.426;2022-11-20T15:01:34;7.30;74.10
49731;DHT22;35622;52.008;5.426;2022-11-20T15:04:09;7.30;74.80
49731;DHT22;35622;52.008;5.426;2022-11-20T15:06:36;6.90;74.90
49731;DHT22;35622;52.008;5.426;2022-11-20T15:09:04;6.80;76.60
49731;DHT22;35622;52.008;5.426;2022-11-20T15:11:32;6.70;78.00
49731;DHT22;35622;52.008;5.426;2022-11-20T15:14:03;6.70;78.00
49731;DHT22;35622;52.008;5.426;2022-11-20T15:16:29;6.80;77.40
49731;DHT22;35622;52.008;5.426;2022-11-20T15:18:56;6.90;76.70
49731;DHT22;35622;52.008;5.426;2022-11-20T15:21:21;7.10;76.60
49731;DHT22;35622;52.008;5.426;2022-11-20T15:23:48;6.90;76.90
49731;DHT22;35622;52.008;5.426;2022-11-20T15:26:18;6.60;77.70
49731;DHT22;35622;52.008;5.426;2022-11-20T15:28:47;6.90;78.20
49731;DHT22;35622;52.008;5.426;2022-11-20T15:31:16;6.80;77.40
49731;DHT22;35622;52.008;5.426;2022-11-20T15:33:42;6.60;78.30
49731;DHT22;35622;52.008;5.426;2022-11-20T15:36:09;6.60;79.80
49731;DHT22;35622;52.008;5.426;2022-11-20T15:38:35;6.80;78.40
49731;DHT22;35622;52.008;5.426;2022-11-20T15:41:00;6.80;78.90
49731;DHT22;35622;52.008;5.426;2022-11-20T15:43:26;7.10;78.00
49731;DHT22;35622;52.008;5.426;2022-11-20T15:45:55;6.80;78.00
49731;DHT22;35622;52.008;5.426;2022-11-20T15:48:26;6.60;79.60
49731;DHT22;35622;52.008;5.426;2022-11-20T15:53:40;6.40;83.10
49731;DHT22;35622;52.008;5.426;2022-11-20T15:56:11;6.70;82.50
49731;DHT22;35622;52.008;5.426;2022-11-20T15:58:37;6.50;82.00
49731;DHT22;35622;52.008;5.426;2022-11-20T16:01:03;6.30;82.30
49731;DHT22;35622;52.008;5.426;2022-11-20T16:03:29;6.40;84.50
49731;DHT22;35622;52.008;5.426;2022-11-20T16:05:55;6.50;83.00
49731;DHT22;35622;52.008;5.426;2022-11-20T16:08:20;6.90;82.30
49731;DHT22;35622;52.008;5.426;2022-11-20T16:10:46;6.80;81.80
49731;DHT22;35622;52.008;5.426;2022-11-20T16:13:13;7.00;80.90
49731;DHT22;35622;52.008;5.426;2022-11-20T16:16:01;6.90;81.00
49731;DHT22;35622;52.008;5.426;2022-11-20T16:18:27;6.80;81.60
49731;DHT22;35622;52.008;5.426;2022-11-20T16:20:54;6.70;81.50
49731;DHT22;35622;52.008;5.426;2022-11-20T16:23:20;6.90;81.50
49731;DHT22;35622;52.008;5.426;2022-11-20T16:25:46;7.20;81.10
49731;DHT22;35622;52.008;5.426;2022-11-20T16:28:12;7.40;79.70
49731;DHT22;35622;52.008;5.426;2022-11-20T16:30:38;7.50;79.40
49731;DHT22;35622;52.008;5.426;2022-11-20T16:33:08;7.60;78.30
49731;DHT22;35622;52.008;5.426;2022-11-20T16:35:34;7.70;77.70
49731;DHT22;35622;52.008;5.426;2022-11-20T16:38:00;7.40;78.70
49731;DHT22;35622;52.008;5.426;2022-11-20T16:40:25;7.20;79.80
49731;DHT22;35622;52.008;5.426;2022-11-20T16:42:51;7.10;80.30
49731;DHT22;35622;52.008;5.426;2022-11-20T16:45:17;7.20;80.90
49731;DHT22;35622;52.008;5.426;2022-11-20T16:47:43;7.50;80.10
49731;DHT22;35622;52.008;5.426;2022-11-20T16:50:09;7.50;79.00
49731;DHT22;35622;52.008;5.426;2022-11-20T16:52:35;7.30;80.40
49731;DHT22;35622;52.008;5.426;2022-11-20T16:55:00;7.50;80.30
49731;DHT22;35622;52.008;5.426;2022-11-20T16:57:30;7.30;79.70
49731;DHT22;35622;52.008;5.426;2022-11-20T16:59:58;7.50;80.30
49731;DHT22;35622;52.008;5.426;2022-11-20T17:02:23;7.50;80.10
49731;DHT22;35622;52.008;5.426;2022-11-20T17:04:50;7.50;79.80
49731;DHT22;35622;52.008;5.426;2022-11-20T17:07:16;7.60;80.20
49731;DHT22;35622;52.008;5.426;2022-11-20T17:09:41;7.70;79.20
49731;DHT22;35622;52.008;5.426;2022-11-20T17:12:07;7.60;79.80
49731;DHT22;35622;52.008;5.426;2022-11-20T17:14:33;7.70;79.50
49731;DHT22;35622;52.008;5.426;2022-11-20T17:16:59;7.90;79.20
49731;DHT22;35622;52.008;5.426;2022-11-20T17:19:24;7.90;78.30
49731;DHT22;35622;52.008;5.426;2022-11-20T17:21:50;8.10;78.30
49731;DHT22;35622;52.008;5.426;2022-11-20T17:24:15;7.60;78.50
49731;DHT22;35622;52.008;5.426;2022-11-20T17:26:42;7.60;79.50
49731;DHT22;35622;52.008;5.426;2022-11-20T17:29:16;7.60;80.50
49731;DHT22;35622;52.008;5.426;2022-11-20T17:31:43;7.50;81.40
49731;DHT22;35622;52.008;5.426;2022-11-20T17:34:13;7.80;80.40
49731;DHT22;35622;52.008;5.426;2022-11-20T17:36:39;7.30;80.80
49731;DHT22;35622;52.008;5.426;2022-11-20T17:39:07;7.50;81.70
49731;DHT22;35622;52.008;5.426;2022-11-20T17:41:32;7.80;80.70